Time;durP1;ratioP1;P1;durP2;ratioP2;P2;SDS_P1;SDS_P2;PMS_P1;PMS_P2;Temp;Humidity;BMP_temperature;BMP_pressure;BME280_temperature;BME280_humidity;BME280_pressure;Samples;Min_cycle;Max_cycle;Signal;HPM_P1;HPM_P2
2023/10/18 00:01:00;;;;;;;6.90;4.40;;;6.70;99.90;;;;;;5020032;28;20704;-88
2023/10/18 00:03:29;;;;;;;6.57;4.87;;;8.40;99.90;;;;;;5019841;28;20283;-90
2023/10/18 00:06:06;;;;;;;6.83;4.17;;;6.70;99.90;;;;;;5020356;28;20180;-87
2023/10/18 00:08:32;;;;;;;6.90;4.53;;;7.20;99.90;;;;;;5019791;28;20208;-86
2023/10/18 00:11:00;;;;;;;9.17;4.33;;;8.20;99.90;;;;;;5003346;28;20193;-89
2023/10/18 00:13:25;;;;;;;5.37;3.93;;;9.00;99.90;;;;;;5019481;28;20193;-88
2023/10/18 00:15:53;;;;;;;8.70;3.93;;;7.50;99.90;;;;;;5020009;28;20201;-90
2023/10/18 00:18:21;;;;;;;5.77;4.07;;;8.20;99.90;;;;;;5019644;28;20238;-88
2023/10/18 00:20:56;;;;;;;5.90;3.87;;;7.30;99.90;;;;;;5019231;28;20267;-86
2023/10/18 00:23:22;;;;;;;5.87;4.07;;;7.30;99.90;;;;;;5019763;28;20219;-88
2023/10/18 00:25:48;;;;;;;6.43;3.70;;;7.20;99.90;;;;;;5019049;28;20268;-91
2023/10/18 00:28:13;;;;;;;5.60;4.27;;;6.60;99.90;;;;;;5019002;28;20181;-91
2023/10/18 00:30:39;;;;;;;5.57;3.50;;;6.90;99.90;;;;;;5019640;28;20198;-90
2023/10/18 00:33:06;;;;;;;11.93;3.33;;;8.10;99.90;;;;;;5019614;28;20264;-89
2023/10/18 00:35:32;;;;;;;5.63;3.40;;;7.10;99.90;;;;;;5018908;28;20192;-90
2023/10/18 00:37:59;;;;;;;4.40;3.03;;;8.30;99.90;;;;;;5018743;28;20197;-91
2023/10/18 00:43:03;;;;;;;6.63;3.20;;;8.30;99.90;;;;;;5019508;28;20192;-89
2023/10/18 00:45:29;;;;;;;3.73;2.53;;;7.20;99.90;;;;;;5016529;28;20183;-89
2023/10/18 00:47:57;;;;;;;7.37;3.73;;;9.00;99.90;;;;;;5015391;28;20553;-84
2023/10/18 00:50:27;;;;;;;8.57;3.27;;;8.70;99.90;;;;;;5015946;28;20191;-89
2023/10/18 00:52:53;;;;;;;4.93;2.97;;;6.70;99.90;;;;;;5015356;28;20177;-86
2023/10/18 00:55:19;;;;;;;5.50;3.07;;;8.50;99.90;;;;;;5014966;28;20275;-87
2023/10/18 00:57:47;;;;;;;4.90;3.57;;;7.40;99.90;;;;;;5014759;28;20224;-89
2023/10/18 01:00:19;;;;;;;6.80;3.60;;;7.60;99.90;;;;;;5022922;28;20221;-86
2023/10/18 01:02:50;;;;;;;5.50;2.97;;;6.70;99.90;;;;;;5024999;28;20184;-90
2023/10/18 01:05:15;;;;;;;6.27;3.23;;;8.50;99.90;;;;;;5018615;28;20192;-89
2023/10/18 01:07:47;;;;;;;6.40;3.40;;;8.90;99.90;;;;;;5018915;28;20182;-91
2023/10/18 01:10:18;;;;;;;3.73;2.83;;;7.90;99.90;;;;;;5018196;28;20213;-87
2023/10/18 01:12:45;;;;;;;6.07;3.40;;;8.30;99.90;;;;;;5018301;28;20659;-91
2023/10/18 01:15:12;;;;;;;5.43;3.43;;;8.50;99.90;;;;;;5018621;28;20185;-88
2023/10/18 01:17:42;;;;;;;4.93;2.63;;;8.00;99.90;;;;;;5018140;28;20268;-90
2023/10/18 01:20:33;;;;;;;6.47;3.50;;;7.50;99.90;;;;;;5021117;28;20213;-87
2023/10/18 01:22:55;;;;;;;6.60;3.60;;;6.80;99.90;;;;;;5023921;28;20214;-90
2023/10/18 01:25:20;;;;;;;2.90;2.60;;;7.60;99.90;;;;;;5022831;28;20281;-89
2023/10/18 01:27:46;;;;;;;6.17;2.90;;;6.80;99.90;;;;;;5021518;28;20188;-89
2023/10/18 01:30:16;;;;;;;6.63;3.23;;;7.00;99.90;;;;;;5022018;28;20304;-89
2023/10/18 01:32:42;;;;;;;4.97;3.10;;;7.20;99.90;;;;;;5021995;28;20227;-87
2023/10/18 01:35:09;;;;;;;6.33;3.67;;;8.50;99.90;;;;;;5022152;28;20557;-87
2023/10/18 01:37:35;;;;;;;6.03;3.13;;;8.70;99.90;;;;;;5022559;28;20186;-86
2023/10/18 01:40:20;;;;;;;4.20;2.67;;;6.60;99.90;;;;;;5022860;28;20201;-89
2023/10/18 01:42:49;;;;;;;5.73;2.93;;;7.80;99.90;;;;;;5021856;28;20202;-89
2023/10/18 01:45:22;;;;;;;5.87;3.10;;;7.90;99.90;;;;;;5022475;28;20174;-90
2023/10/18 01:47:51;;;;;;;5.87;3.47;;;7.70;99.90;;;;;;5023330;28;20173;-89
2023/10/18 01:50:18;;;;;;;6.90;3.50;;;7.90;99.90;;;;;;5022274;28;20236;-89
2023/10/18 01:52:45;;;;;;;5.70;3.23;;;7.30;99.90;;;;;;5022159;28;20208;-91
2023/10/18 01:55:12;;;;;;;5.63;3.10;;;7.10;99.90;;;;;;5021989;28;20181;-88
2023/10/18 01:57:38;;;;;;;8.03;4.30;;;8.30;99.90;;;;;;5022052;28;20716;-90
2023/10/18 02:00:05;;;;;;;3.67;3.17;;;7.90;99.90;;;;;;5022144;28;20204;-89
2023/10/18 02:02:34;;;;;;;5.93;3.07;;;7.00;99.90;;;;;;5021275;28;20187;-91
2023/10/18 02:04:59;;;;;;;6.90;3.50;;;8.40;99.90;;;;;;5017620;28;20673;-89
2023/10/18 02:07:25;;;;;;;7.30;3.20;;;7.90;99.90;;;;;;5017283;28;20280;-86
2023/10/18 02:09:57;;;;;;;6.53;3.30;;;7.60;99.90;;;;;;5017350;28;20208;-88
2023/10/18 02:14:50;;;;;;;8.83;3.93;;;8.50;99.90;;;;;;5758519;22;20263;-47
2023/10/18 02:17:18;;;;;;;6.37;3.73;;;6.90;99.90;;;;;;5019168;28;20220;-47
2023/10/18 02:19:46;;;;;;;5.03;3.13;;;6.90;99.90;;;;;;5036528;28;20292;-47
2023/10/18 02:22:16;;;;;;;5.47;3.53;;;6.90;99.90;;;;;;5036445;28;20218;-48
2023/10/18 02:24:42;;;;;;;4.93;3.30;;;6.90;99.90;;;;;;5035807;28;20218;-47
2023/10/18 02:27:15;;;;;;;4.93;3.70;;;6.90;99.90;;;;;;5036288;28;20682;-49
2023/10/18 02:29:42;;;;;;;4.43;3.77;;;6.90;99.90;;;;;;5018036;28;20204;-47
2023/10/18 02:32:23;;;;;;;7.17;3.33;;;6.90;99.90;;;;;;5002147;28;20225;-47
2023/10/18 02:34:51;;;;;;;5.57;2.47;;;6.90;99.90;;;;;;5036579;28;20577;-47
2023/10/18 02:37:19;;;;;;;5.57;3.53;;;6.90;99.90;;;;;;5037166;28;20183;-49
2023/10/18 02:39:49;;;;;;;5.47;3.60;;;6.90;99.90;;;;;;5018444;28;20212;-48
2023/10/18 02:42:15;;;;;;;5.73;3.57;;;6.90;99.90;;;;;;5036253;28;20659;-46
2023/10/18 02:44:45;;;;;;;5.97;3.57;;;6.90;99.90;;;;;;5036223;28;20179;-45
2023/10/18 02:47:16;;;;;;;5.37;3.80;;;6.90;99.90;;;;;;5035907;28;20649;-47
2023/10/18 02:49:47;;;;;;;4.07;2.97;;;6.80;99.90;;;;;;5019280;28;20531;-46
2023/10/18 02:52:16;;;;;;;7.97;3.90;;;6.80;99.90;;;;;;5035765;28;20309;-47
2023/10/18 02:54:48;;;;;;;4.47;3.57;;;6.80;99.90;;;;;;5018579;28;20745;-46
2023/10/18 02:57:15;;;;;;;6.10;3.30;;;6.80;99.90;;;;;;5036740;28;20175;-46
2023/10/18 02:59:42;;;;;;;6.47;3.70;;;6.80;99.90;;;;;;5035584;28;20208;-46
2023/10/18 03:02:15;;;;;;;6.50;3.70;;;6.80;99.90;;;;;;5035623;28;20177;-48
2023/10/18 03:04:42;;;;;;;4.93;3.50;;;6.80;99.90;;;;;;5036077;28;20176;-48
2023/10/18 03:07:13;;;;;;;6.57;3.93;;;6.70;99.90;;;;;;5018140;28;20181;-46
2023/10/18 03:09:39;;;;;;;6.03;4.20;;;6.70;99.90;;;;;;5035676;28;20200;-46
2023/10/18 03:12:14;;;;;;;5.53;3.67;;;6.70;99.90;;;;;;5017955;28;20180;-46
2023/10/18 03:14:55;;;;;;;6.77;4.50;;;6.70;99.90;;;;;;5035643;28;20249;-48
2023/10/18 03:17:23;;;;;;;5.70;3.57;;;6.70;99.90;;;;;;5020049;28;20249;-46
2023/10/18 03:19:50;;;;;;;6.80;3.60;;;6.60;99.90;;;;;;5035409;28;20295;-47
2023/10/18 03:22:19;;;;;;;5.80;4.07;;;6.60;99.90;;;;;;5036635;28;20564;-47
2023/10/18 03:24:54;;;;;;;4.33;3.57;;;6.60;99.90;;;;;;5017956;28;20199;-46
2023/10/18 03:27:20;;;;;;;7.97;3.80;;;6.60;99.90;;;;;;5035491;28;20167;-46
2023/10/18 03:29:46;;;;;;;8.97;3.57;;;6.60;99.90;;;;;;5035132;28;20228;-47
2023/10/18 03:32:19;;;;;;;6.90;3.20;;;6.50;99.90;;;;;;5035300;28;20219;-47
2023/10/18 03:34:52;;;;;;;9.47;3.63;;;6.50;99.90;;;;;;5035339;28;20165;-46
2023/10/18 03:37:21;;;;;;;4.67;3.40;;;6.50;99.90;;;;;;5035199;28;20181;-47
2023/10/18 03:39:52;;;;;;;5.00;4.13;;;6.50;99.90;;;;;;5034038;28;20649;-47
2023/10/18 03:42:32;;;;;;;5.60;3.77;;;6.40;99.90;;;;;;5034883;28;20171;-46
2023/10/18 03:45:10;;;;;;;10.40;3.73;;;6.40;99.90;;;;;;5035160;28;20164;-46
2023/10/18 03:47:36;;;;;;;5.03;3.63;;;6.40;99.90;;;;;;5035057;28;20163;-46
2023/10/18 03:50:08;;;;;;;6.23;4.10;;;6.40;99.90;;;;;;5034742;28;20209;-46
2023/10/18 03:52:38;;;;;;;7.80;3.67;;;6.40;99.90;;;;;;5034957;28;20171;-46
2023/10/18 03:55:05;;;;;;;4.60;3.50;;;6.40;99.90;;;;;;5035754;28;20270;-48
2023/10/18 03:57:41;;;;;;;6.30;4.10;;;6.30;99.90;;;;;;5034793;28;20235;-47
2023/10/18 04:02:52;;;;;;;6.43;4.03;;;6.30;99.90;;;;;;5033404;28;20184;-46
2023/10/18 04:06:03;;;;;;;7.23;4.33;;;6.30;99.90;;;;;;5034413;28;20183;-46
2023/10/18 04:08:14;;;;;;;8.43;4.37;;;6.30;99.90;;;;;;5023768;28;20275;-47
2023/10/18 04:10:44;;;;;;;11.23;4.63;;;6.30;99.90;;;;;;5034465;28;20253;-48
2023/10/18 04:13:12;;;;;;;7.40;3.80;;;6.30;99.90;;;;;;5033827;28;20532;-46
2023/10/18 04:15:40;;;;;;;5.50;4.43;;;6.30;99.90;;;;;;5034076;28;20196;-48
2023/10/18 04:18:25;;;;;;;8.67;4.47;;;6.30;99.90;;;;;;5034195;28;20184;-47
2023/10/18 04:20:52;;;;;;;7.37;4.33;;;6.30;99.90;;;;;;5002628;28;20219;-47
2023/10/18 04:23:19;;;;;;;9.00;4.73;;;6.30;99.90;;;;;;5034067;28;20183;-47
2023/10/18 04:26:10;;;;;;;8.10;4.23;;;6.30;99.90;;;;;;5034353;28;20184;-48
2023/10/18 04:28:38;;;;;;;7.73;4.57;;;6.30;99.90;;;;;;5033684;28;20563;-48
2023/10/18 04:31:08;;;;;;;9.17;5.37;;;6.30;99.90;;;;;;5034135;28;20303;-47
2023/10/18 04:33:49;;;;;;;6.53;4.83;;;6.40;99.90;;;;;;5034270;28;20164;-48
2023/10/18 04:36:16;;;;;;;6.50;4.50;;;6.30;99.90;;;;;;5034053;28;20160;-46
2023/10/18 04:38:43;;;;;;;7.20;5.27;;;6.30;99.90;;;;;;5033804;28;20183;-48
2023/10/18 04:41:23;;;;;;;7.77;5.07;;;6.30;99.90;;;;;;5033815;28;20222;-47
2023/10/18 04:43:51;;;;;;;11.63;6.50;;;6.40;99.90;;;;;;5034261;28;20627;-47
2023/10/18 04:46:22;;;;;;;6.63;4.80;;;6.40;99.90;;;;;;5034149;28;20291;-47
2023/10/18 04:54:35;;;;;;;6.83;4.67;;;6.40;99.90;;;;;;4999565;28;20633;-47
2023/10/18 04:57:04;;;;;;;6.70;5.13;;;6.40;99.90;;;;;;5033838;28;20306;-47
2023/10/18 04:59:46;;;;;;;7.73;5.23;;;6.40;99.90;;;;;;5033737;28;20199;-46
2023/10/18 05:02:17;;;;;;;7.73;5.00;;;6.40;99.90;;;;;;5033840;28;20173;-46
2023/10/18 05:04:46;;;;;;;7.33;4.03;;;6.40;99.90;;;;;;5034372;28;20168;-45
2023/10/18 05:09:43;;;;;;;7.60;5.10;;;6.40;99.90;;;;;;5033096;28;20187;-46
2023/10/18 05:12:28;;;;;;;11.07;4.50;;;6.50;99.90;;;;;;5016638;28;20610;-45
2023/10/18 05:17:30;;;;;;;7.43;4.93;;;6.50;99.90;;;;;;5033447;28;20161;-47
2023/10/18 05:19:56;;;;;;;7.50;5.10;;;6.50;99.90;;;;;;5033579;28;20248;-46
2023/10/18 05:22:25;;;;;;;8.90;5.03;;;6.50;99.90;;;;;;5034221;28;20200;-46
2023/10/18 05:25:14;;;;;;;16.33;5.20;;;6.50;99.90;;;;;;5033336;28;20176;-47
2023/10/18 05:27:59;;;;;;;7.93;4.87;;;6.50;99.90;;;;;;5033549;28;20168;-48
2023/10/18 05:33:16;;;;;;;9.73;5.07;;;6.50;99.90;;;;;;5033813;28;20193;-46
2023/10/18 05:35:43;;;;;;;6.63;4.73;;;6.50;99.90;;;;;;5033616;28;20599;-46
2023/10/18 05:43:22;;;;;;;7.80;4.20;;;6.50;99.90;;;;;;5033410;28;20168;-46
2023/10/18 05:45:58;;;;;;;4.13;3.70;;;6.50;99.90;;;;;;5033405;28;20640;-47
2023/10/18 05:48:24;;;;;;;9.23;5.73;;;6.50;99.90;;;;;;5033128;28;20164;-46
2023/10/18 05:51:02;;;;;;;6.73;5.00;;;6.50;99.90;;;;;;5033228;28;20203;-47
2023/10/18 05:53:29;;;;;;;9.60;5.23;;;6.50;99.90;;;;;;5033349;28;20176;-47
2023/10/18 05:55:56;;;;;;;7.63;5.23;;;6.50;99.90;;;;;;5015146;28;20185;-46
2023/10/18 05:58:26;;;;;;;9.80;5.50;;;6.50;99.90;;;;;;5033170;28;20180;-47
2023/10/18 06:00:58;;;;;;;8.50;5.50;;;6.40;99.90;;;;;;5033131;28;20577;-46
2023/10/18 06:03:39;;;;;;;9.27;5.90;;;6.40;99.90;;;;;;5033429;28;20242;-45
2023/10/18 06:06:07;;;;;;;9.13;5.40;;;6.40;99.90;;;;;;5036642;28;20165;-48
2023/10/18 06:08:34;;;;;;;13.17;6.13;;;6.40;99.90;;;;;;5036835;28;20207;-47
2023/10/18 06:11:08;;;;;;;8.57;5.60;;;6.30;99.90;;;;;;5037495;28;20208;-46
2023/10/18 06:13:37;;;;;;;17.93;5.93;;;6.40;99.90;;;;;;5036511;28;20177;-48
2023/10/18 06:16:18;;;;;;;8.67;5.77;;;6.30;99.90;;;;;;5036238;28;20239;-46
2023/10/18 06:18:45;;;;;;;10.97;6.07;;;6.30;99.90;;;;;;5018812;28;20228;-47
2023/10/18 06:21:18;;;;;;;7.27;5.57;;;6.30;99.90;;;;;;5036515;28;20215;-47
2023/10/18 06:23:56;;;;;;;8.90;6.00;;;6.30;99.90;;;;;;5036551;28;20164;-47
2023/10/18 06:26:28;;;;;;;8.33;5.63;;;6.40;99.90;;;;;;5019361;28;20223;-47
2023/10/18 06:29:01;;;;;;;7.00;5.07;;;6.30;99.90;;;;;;5036524;28;20506;-47
2023/10/18 06:31:30;;;;;;;7.63;5.87;;;6.30;99.90;;;;;;5036309;28;20212;-47
2023/10/18 06:33:58;;;;;;;13.03;5.47;;;6.40;99.90;;;;;;5035732;28;20573;-47
2023/10/18 06:36:25;;;;;;;7.63;4.50;;;6.40;99.90;;;;;;5036367;28;20181;-47
2023/10/18 06:38:53;;;;;;;10.57;5.80;;;6.40;99.90;;;;;;5018361;28;20186;-47
2023/10/18 06:41:19;;;;;;;10.13;5.53;;;6.40;99.90;;;;;;5018095;28;20237;-46
2023/10/18 06:43:53;;;;;;;8.60;5.63;;;6.50;99.90;;;;;;5035905;28;20176;-47
2023/10/18 06:46:26;;;;;;;8.93;5.53;;;6.50;99.90;;;;;;5035976;28;20655;-46
2023/10/18 06:48:55;;;;;;;7.97;5.20;;;6.60;99.90;;;;;;5035023;28;20192;-47
2023/10/18 06:51:31;;;;;;;8.77;5.20;;;6.60;99.90;;;;;;5036103;28;20283;-47
2023/10/18 06:54:03;;;;;;;9.23;6.23;;;6.60;99.90;;;;;;5036706;28;20579;-48
2023/10/18 06:56:32;;;;;;;7.50;4.93;;;6.70;99.90;;;;;;5019794;28;20193;-49
2023/10/18 06:59:07;;;;;;;6.70;4.97;;;6.70;99.90;;;;;;5036447;28;20207;-45
2023/10/18 07:01:41;;;;;;;8.37;5.27;;;6.80;99.90;;;;;;5035837;28;20261;-48
2023/10/18 07:04:18;;;;;;;7.93;5.83;;;6.80;99.90;;;;;;5035939;28;20165;-46
2023/10/18 07:06:44;;;;;;;7.43;5.03;;;6.90;99.90;;;;;;5035699;28;20247;-46
2023/10/18 07:09:28;;;;;;;5.83;4.83;;;6.90;99.90;;;;;;5035447;28;20173;-46
2023/10/18 07:11:57;;;;;;;9.53;5.10;;;7.00;99.90;;;;;;5035754;28;20168;-46
2023/10/18 07:14:26;;;;;;;11.10;5.87;;;7.10;99.90;;;;;;5017921;28;20203;-46
2023/10/18 07:16:55;;;;;;;7.90;5.43;;;7.20;99.90;;;;;;5035036;28;20569;-46
2023/10/18 07:21:51;;;;;;;9.30;4.80;;;7.20;99.90;;;;;;5035426;28;20211;-46
2023/10/18 07:24:27;;;;;;;4.50;2.80;;;7.30;99.90;;;;;;5017419;28;20188;-47
2023/10/18 07:26:53;;;;;;;8.67;5.13;;;7.30;99.90;;;;;;5035441;28;20155;-49
2023/10/18 08:27:41;;;;;;;7.07;4.73;;;8.60;99.90;;;;;;5033897;28;20259;-43
2023/10/18 08:30:22;;;;;;;6.27;5.00;;;8.70;99.90;;;;;;5034186;28;20677;-44
2023/10/18 08:32:50;;;;;;;5.83;4.10;;;8.80;98.50;;;;;;5019680;28;20185;-43
2023/10/18 08:35:21;;;;;;;6.90;5.37;;;8.80;96.50;;;;;;5034514;28;20181;-43
2023/10/18 08:37:47;;;;;;;7.53;4.83;;;8.90;97.50;;;;;;5033977;28;20161;-42
2023/10/18 08:40:27;;;;;;;8.43;5.33;;;8.90;97.00;;;;;;5033640;28;20578;-43
2023/10/18 08:43:08;;;;;;;8.03;5.20;;;8.90;95.90;;;;;;5033794;28;20172;-44
2023/10/18 08:45:47;;;;;;;8.17;5.33;;;9.00;96.50;;;;;;5034175;28;20161;-44
2023/10/18 08:48:16;;;;;;;6.80;5.00;;;9.00;97.80;;;;;;5034047;28;20172;-43
2023/10/18 08:50:48;;;;;;;5.13;3.30;;;9.10;96.40;;;;;;5033921;28;20288;-43
2023/10/18 08:53:21;;;;;;;10.03;5.60;;;9.20;97.00;;;;;;5033869;28;20171;-44
2023/10/18 08:55:52;;;;;;;6.77;4.83;;;9.20;97.00;;;;;;5034505;28;20170;-44
2023/10/18 08:58:20;;;;;;;6.10;4.67;;;9.20;97.00;;;;;;5033906;28;20252;-43
2023/10/18 09:03:23;;;;;;;7.37;5.30;;;9.50;99.60;;;;;;5033696;28;20176;-43
2023/10/18 09:05:52;;;;;;;8.80;5.20;;;9.60;97.10;;;;;;5016295;28;20213;-50
2023/10/18 09:08:23;;;;;;;8.80;5.40;;;9.60;95.30;;;;;;5033689;28;20185;-47
2023/10/18 09:10:54;;;;;;;7.03;5.37;;;9.70;95.40;;;;;;5032901;28;20219;-47
2023/10/18 09:15:56;;;;;;;9.17;5.87;;;9.80;95.90;;;;;;5034234;28;20634;-47
2023/10/18 09:18:25;;;;;;;8.47;5.07;;;9.90;96.00;;;;;;5033706;28;20169;-48
2023/10/18 09:20:55;;;;;;;7.30;4.63;;;10.00;93.50;;;;;;5033437;28;20223;-49
2023/10/18 09:23:28;;;;;;;12.70;5.77;;;10.10;93.70;;;;;;5028491;28;20200;-46
2023/10/18 09:26:28;;;;;;;9.07;5.77;;;10.20;91.00;;;;;;5033569;28;20161;-47
2023/10/18 09:28:47;;;;;;;8.53;5.30;;;10.30;89.60;;;;;;5030016;28;20677;-48
2023/10/18 09:31:18;;;;;;;7.93;5.00;;;10.50;84.80;;;;;;5033447;28;20203;-47
2023/10/18 09:34:07;;;;;;;7.00;4.53;;;10.50;90.80;;;;;;5033209;28;20191;-47
2023/10/18 09:36:38;;;;;;;8.67;5.30;;;10.70;90.90;;;;;;5015535;28;20197;-47
2023/10/18 09:39:09;;;;;;;11.93;4.73;;;10.70;91.40;;;;;;5033143;28;20169;-48
2023/10/18 09:41:37;;;;;;;12.83;5.90;;;10.90;92.70;;;;;;5037229;28;20213;-48
2023/10/18 09:44:19;;;;;;;9.23;5.60;;;11.00;90.10;;;;;;5037313;28;20250;-47
2023/10/18 09:46:48;;;;;;;7.07;5.20;;;11.10;91.40;;;;;;5037848;28;20227;-48
2023/10/18 09:49:24;;;;;;;11.33;5.53;;;11.20;87.90;;;;;;5037256;28;20633;-49
2023/10/18 09:51:53;;;;;;;7.77;5.63;;;11.30;71.40;;;;;;5016541;28;20208;-45
2023/10/18 09:54:25;;;;;;;7.77;5.60;;;11.40;69.60;;;;;;5019989;28;20193;-44
2023/10/18 09:56:58;;;;;;;8.40;5.33;;;11.50;75.50;;;;;;5036831;28;20173;-44
2023/10/18 09:59:26;;;;;;;8.47;5.50;;;11.60;72.30;;;;;;5037081;28;20192;-43
2023/10/18 10:01:59;;;;;;;7.87;4.83;;;11.70;67.60;;;;;;5036435;28;20244;-43
2023/10/18 10:04:32;;;;;;;4.77;4.03;;;11.80;59.80;;;;;;5018984;28;20185;-45
2023/10/18 10:09:50;;;;;;;6.30;4.83;;;11.90;60.50;;;;;;5037188;28;20195;-44
2023/10/18 10:12:19;;;;;;;6.77;4.80;;;11.90;64.70;;;;;;5036842;28;20205;-43
2023/10/18 10:14:47;;;;;;;8.83;5.20;;;12.00;66.70;;;;;;5018930;28;20660;-46
2023/10/18 10:17:18;;;;;;;5.53;4.43;;;12.00;50.90;;;;;;5018745;28;20648;-43
2023/10/18 10:19:56;;;;;;;8.17;4.63;;;12.10;71.30;;;;;;5002938;28;20690;-42
2023/10/18 10:22:25;;;;;;;7.87;5.17;;;12.20;70.00;;;;;;5036669;28;20580;-44
2023/10/18 10:25:04;;;;;;;8.17;4.63;;;12.30;63.70;;;;;;5036345;28;20189;-44
2023/10/18 10:27:52;;;;;;;5.70;4.80;;;12.30;64.10;;;;;;5034492;28;20185;-44
2023/10/18 10:32:49;;;;;;;7.63;4.50;;;12.40;55.50;;;;;;5019089;28;20669;-45
2023/10/18 10:35:17;;;;;;;8.70;4.20;;;12.40;72.70;;;;;;5036324;28;20261;-43
2023/10/18 10:37:50;;;;;;;5.33;3.67;;;12.40;71.50;;;;;;5036187;28;20601;-46
2023/10/18 10:43:09;;;;;;;7.27;4.47;;;12.50;65.60;;;;;;5036322;28;20177;-46
2023/10/18 10:45:43;;;;;;;7.43;4.07;;;12.50;74.30;;;;;;5036056;28;20262;-47
2023/10/18 10:51:13;;;;;;;5.23;4.00;;;12.60;78.20;;;;;;5035152;28;20248;-44
2023/10/18 10:53:58;;;;;;;5.67;3.87;;;12.70;69.20;;;;;;5035897;28;20173;-44
2023/10/18 10:56:24;;;;;;;7.03;4.03;;;12.80;66.10;;;;;;5035726;28;20633;-44
2023/10/18 11:04:29;;;;;;;9.57;3.77;;;13.10;57.00;;;;;;5035691;28;20160;-44
2023/10/18 11:06:57;;;;;;;7.93;4.37;;;13.30;35.90;;;;;;5034794;28;20192;-46
2023/10/18 11:09:50;;;;;;;8.13;4.00;;;13.30;52.70;;;;;;5035543;28;20548;-44
2023/10/18 11:12:14;;;;;;;6.63;3.93;;;13.40;38.30;;;;;;5020851;28;20204;-45
2023/10/18 11:14:43;;;;;;;5.43;4.20;;;13.50;50.60;;;;;;5017711;28;20287;-45
2023/10/18 11:19:51;;;;;;;6.80;4.20;;;13.60;38.60;;;;;;5035566;28;20227;-47
2023/10/18 11:22:22;;;;;;;10.80;4.80;;;13.80;15.20;;;;;;5035315;28;20161;-45
2023/10/18 11:24:52;;;;;;;14.80;4.07;;;13.80;25.40;;;;;;5035523;28;20176;-45
2023/10/18 11:27:25;;;;;;;11.97;4.00;;;13.90;59.50;;;;;;5018473;28;20204;-45
2023/10/18 11:30:13;;;;;;;7.57;3.97;;;14.00;34.40;;;;;;5014342;28;20705;-45
2023/10/18 11:32:43;;;;;;;4.53;3.30;;;14.10;14.10;;;;;;5033667;28;20193;-44
2023/10/18 11:35:16;;;;;;;9.07;4.03;;;14.20;23.10;;;;;;5035600;28;20527;-45
2023/10/18 11:37:45;;;;;;;8.77;3.93;;;14.30;37.60;;;;;;5034978;28;20180;-46
2023/10/18 11:40:21;;;;;;;7.37;3.97;;;14.30;45.10;;;;;;5035107;28;20239;-45
2023/10/18 11:43:21;;;;;;;4.70;3.37;;;14.40;38.40;;;;;;5034842;28;20165;-44
2023/10/18 11:46:02;;;;;;;8.43;3.63;;;14.50;55.70;;;;;;5034841;28;20185;-45
2023/10/18 11:48:36;;;;;;;7.73;3.60;;;14.50;28.90;;;;;;5016718;28;20608;-44
2023/10/18 11:51:06;;;;;;;6.33;3.47;;;14.60;16.00;;;;;;5034811;28;20205;-43
2023/10/18 11:53:35;;;;;;;5.40;4.00;;;14.70;29.90;;;;;;5035029;28;20173;-45
2023/10/18 11:56:05;;;;;;;6.93;3.40;;;14.80;39.90;;;;;;5017286;28;20189;-46
2023/10/18 11:58:33;;;;;;;4.83;3.13;;;14.90;37.20;;;;;;5034556;28;20173;-44
2023/10/18 12:01:06;;;;;;;4.13;3.00;;;14.90;29.10;;;;;;5034421;28;20620;-45
2023/10/18 12:03:33;;;;;;;7.77;3.60;;;15.00;65.00;;;;;;5034954;28;20548;-46
2023/10/18 12:06:00;;;;;;;6.80;3.50;;;15.00;66.10;;;;;;5034811;28;20177;-44
2023/10/18 12:08:32;;;;;;;4.57;3.10;;;15.00;45.60;;;;;;5017656;28;20173;-45
2023/10/18 12:10:58;;;;;;;7.17;3.53;;;15.10;51.40;;;;;;5018682;28;20243;-45
2023/10/18 12:13:24;;;;;;;4.43;2.97;;;15.10;48.90;;;;;;5017092;28;20185;-44
2023/10/18 12:15:51;;;;;;;4.57;3.10;;;15.10;39.70;;;;;;5034100;28;20189;-44
2023/10/18 12:18:21;;;;;;;7.97;3.70;;;15.20;14.70;;;;;;5035517;28;20193;-43
2023/10/18 12:20:51;;;;;;;5.13;3.17;;;15.20;26.20;;;;;;5035849;28;20212;-44
2023/10/18 12:23:20;;;;;;;5.63;2.90;;;15.20;5.00;;;;;;5034929;28;20153;-45
2023/10/18 12:25:46;;;;;;;3.63;2.97;;;15.20;22.00;;;;;;5034784;28;20177;-45
2023/10/18 12:28:14;;;;;;;5.33;3.03;;;15.20;1.00;;;;;;5000621;28;20181;-44
2023/10/18 12:30:55;;;;;;;6.87;3.00;;;15.20;13.10;;;;;;5016938;28;20220;-45
2023/10/18 12:33:25;;;;;;;3.10;2.70;;;15.20;29.40;;;;;;5033912;28;20709;-44
2023/10/18 12:35:53;;;;;;;6.53;2.80;;;15.20;24.40;;;;;;5015990;28;20192;-44
2023/10/18 12:41:45;;;;;;;3.70;2.80;;;15.30;37.00;;;;;;5033858;28;20219;-45
2023/10/18 12:44:17;;;;;;;5.57;3.00;;;15.40;40.40;;;;;;5034097;28;20172;-45
2023/10/18 12:47:10;;;;;;;5.13;2.53;;;15.50;49.90;;;;;;5020722;28;20204;-44
2023/10/18 12:49:45;;;;;;;4.93;2.90;;;15.50;47.50;;;;;;5033900;28;20179;-45
2023/10/18 12:55:43;;;;;;;2.93;2.23;;;15.50;73.60;;;;;;5034019;28;20203;-44
2023/10/18 12:57:56;;;;;;;5.77;3.00;;;15.50;60.10;;;;;;5029741;28;20271;-45
2023/10/18 13:00:24;;;;;;;4.27;2.53;;;15.50;18.10;;;;;;5033563;28;20291;-45
2023/10/18 13:05:22;;;;;;;4.73;2.83;;;15.50;24.70;;;;;;5016568;28;20192;-44
2023/10/18 13:07:59;;;;;;;8.40;3.20;;;15.60;41.90;;;;;;5033629;28;20177;-45
2023/10/18 13:10:35;;;;;;;6.03;2.70;;;15.70;36.80;;;;;;5033953;28;20283;-44
2023/10/18 13:13:16;;;;;;;10.53;3.27;;;15.70;44.90;;;;;;5033701;28;20164;-45
2023/10/18 13:15:57;;;;;;;5.03;2.50;;;15.70;24.50;;;;;;5031402;28;20247;-45
2023/10/18 13:18:28;;;;;;;7.90;2.97;;;15.70;29.00;;;;;;5033422;28;20189;-45
2023/10/18 13:21:07;;;;;;;5.70;2.87;;;15.80;42.10;;;;;;5015784;28;20229;-45
2023/10/18 13:23:34;;;;;;;4.07;2.63;;;15.80;32.60;;;;;;5015943;28;20179;-45
2023/10/18 13:26:04;;;;;;;10.33;3.17;;;15.70;30.40;;;;;;5033615;28;20185;-43
2023/10/18 13:28:34;;;;;;;5.60;3.23;;;15.70;27.00;;;;;;5033603;28;20189;-44
2023/10/18 13:31:30;;;;;;;3.67;2.73;;;15.70;1.90;;;;;;5033450;28;20205;-44
2023/10/18 13:34:18;;;;;;;9.27;3.20;;;15.60;7.00;;;;;;5033653;28;20173;-46
2023/10/18 13:36:48;;;;;;;5.33;2.70;;;15.60;2.10;;;;;;5033754;28;20256;-45
2023/10/18 13:39:17;;;;;;;4.93;2.73;;;15.50;1.00;;;;;;5033506;28;20192;-45
2023/10/18 13:41:47;;;;;;;5.87;2.80;;;15.50;7.20;;;;;;5033284;28;20212;-43
2023/10/18 13:44:13;;;;;;;4.77;2.80;;;15.50;15.90;;;;;;5033401;28;20181;-44
2023/10/18 13:46:57;;;;;;;4.43;2.77;;;15.50;22.80;;;;;;5015407;28;20191;-45
2023/10/18 13:49:24;;;;;;;6.10;2.90;;;15.50;23.80;;;;;;5033399;28;20158;-45
2023/10/18 13:51:51;;;;;;;8.60;3.43;;;15.40;26.10;;;;;;5033096;28;20281;-46
2023/10/18 13:54:18;;;;;;;6.10;2.70;;;15.40;33.70;;;;;;5015448;28;20649;-44
2023/10/18 13:56:49;;;;;;;4.13;2.73;;;15.40;28.30;;;;;;4998605;28;20207;-44
2023/10/18 13:59:16;;;;;;;3.97;2.77;;;15.40;21.90;;;;;;5033006;28;20177;-45
2023/10/18 14:01:49;;;;;;;5.70;2.60;;;15.30;26.00;;;;;;5032865;28;20719;-46
2023/10/18 14:04:19;;;;;;;5.53;2.77;;;15.30;32.20;;;;;;5033322;28;20193;-45
2023/10/18 14:06:45;;;;;;;8.73;2.57;;;15.20;19.40;;;;;;5033068;28;20184;-45
2023/10/18 14:12:15;;;;;;;3.13;1.90;;;15.10;29.60;;;;;;5020208;28;20242;-45
2023/10/18 14:14:42;;;;;;;5.10;2.67;;;15.10;22.50;;;;;;5033047;28;20173;-44
2023/10/18 14:17:11;;;;;;;5.97;2.50;;;15.00;19.80;;;;;;5015211;28;20211;-44
2023/10/18 14:19:39;;;;;;;6.10;2.90;;;15.00;24.10;;;;;;5033122;28;20589;-43
2023/10/18 14:22:06;;;;;;;5.43;3.10;;;15.00;36.20;;;;;;5032794;28;20201;-45
2023/10/18 14:24:31;;;;;;;8.73;2.70;;;14.90;49.20;;;;;;5033051;28;20181;-44
2023/10/18 14:26:59;;;;;;;6.57;2.77;;;14.90;31.90;;;;;;5017683;28;20231;-44
2023/10/18 14:29:25;;;;;;;5.17;2.73;;;14.90;58.60;;;;;;5018448;28;20282;-43
2023/10/18 14:31:51;;;;;;;5.37;2.70;;;14.90;53.20;;;;;;5036819;28;20193;-45
2023/10/18 14:34:16;;;;;;;3.47;2.30;;;14.90;60.80;;;;;;5036259;28;20173;-45
2023/10/18 14:36:42;;;;;;;5.13;2.80;;;14.80;27.90;;;;;;5036244;28;20521;-46
2023/10/18 14:39:07;;;;;;;5.07;2.50;;;14.80;37.40;;;;;;5036378;28;20183;-45
2023/10/18 14:41:39;;;;;;;4.53;2.73;;;14.80;42.70;;;;;;5035897;28;20209;-45
2023/10/18 14:44:07;;;;;;;8.37;2.60;;;14.80;48.20;;;;;;5019155;28;20173;-45
2023/10/18 14:46:37;;;;;;;7.03;2.97;;;14.80;56.20;;;;;;5036150;28;20267;-45
2023/10/18 14:49:03;;;;;;;4.73;2.10;;;14.80;54.80;;;;;;5018049;28;20548;-44
2023/10/18 14:51:29;;;;;;;4.33;2.37;;;14.80;55.40;;;;;;5018194;28;20215;-45
2023/10/18 14:53:57;;;;;;;3.83;2.30;;;14.70;63.50;;;;;;5036144;28;20252;-44
2023/10/18 14:56:47;;;;;;;4.20;2.33;;;14.70;46.90;;;;;;5035798;28;20236;-44
2023/10/18 14:59:13;;;;;;;8.63;2.83;;;14.70;52.10;;;;;;5001756;28;20556;-46
2023/10/18 15:01:41;;;;;;;4.70;3.00;;;14.60;28.00;;;;;;5035657;28;20212;-45
2023/10/18 15:04:08;;;;;;;4.60;3.00;;;14.60;48.00;;;;;;5035691;28;20177;-45
2023/10/18 15:06:53;;;;;;;4.17;2.60;;;14.60;40.70;;;;;;5035890;28;20201;-43
2023/10/18 15:09:20;;;;;;;4.23;2.30;;;14.50;40.40;;;;;;5026373;28;20258;-43
2023/10/18 15:11:51;;;;;;;5.37;3.10;;;14.50;56.90;;;;;;5017799;28;20232;-43
2023/10/18 15:14:19;;;;;;;5.30;2.80;;;14.50;51.90;;;;;;5035843;28;20193;-45
2023/10/18 15:16:45;;;;;;;7.53;2.73;;;14.40;56.40;;;;;;5035537;28;20181;-45